If you wish to contribute or participate in the discussions about articles you are invited to join SKYbrary as a registered user

 Actions

Beijing Daxing International Airport

From SKYbrary Wiki

ZBAD
Airport
ICAO: ZBAD – IATA: PKX
Summary
Name Beijing Daxing International Airport
Region Asia and Pacific
Territory China CN.gif
Location Tanchengcun, Beijing
Serving Beijing
Elevation 29.87 m <br />98 ft29.87 m <br />
Coordinates 39° 30' 33.01" N, 116° 24' 38.02" E
Runways
Designator Length Width Surface ROPS


METAR
Observation ZBAD 052230Z VRB01MPS 8000 SCT033 22/21 Q1003 NOSIG
Station Beijing Daxing International Airport
Date/Time 05 August 2021 22:30:00
Wind direction °
Wind speed kts
Lowest cloud amount scattered clouds
Temperature 22°C
Dew point 21°C
Humidity 94%
QNH 1003 hPa
Weather condition n/a

Beijing Daxing International Airport, located on the border of Beijing and Langfang, Hebei Province, is Beijing's second international airport.

Climatology

Humid continental climate (Köppen climate classification Dwa).

Maps

Terrain

Loading map...

Airport Layout

Loading map...


Accidents & Serious Incidents at or in vicinity of ZBAD

None on SKYbrary